sensor_id;sensor_type;location;lat;lon;timestamp;pressure;altitude;pressure_sealevel;temperature
79148;BMP280;68562;51.600;6.524;2023-12-07T00:00:00;1018.4;;;6.2
79148;BMP280;68562;51.600;6.524;2023-12-07T00:05:00;1018.4;;;6.3
79148;BMP280;68562;51.600;6.524;2023-12-07T00:10:00;1018.4;;;6.2
79148;BMP280;68562;51.600;6.524;2023-12-07T00:15:00;1018.3;;;6.3
79148;BMP280;68562;51.600;6.524;2023-12-07T00:20:00;1018.3;;;6.3
79148;BMP280;68562;51.600;6.524;2023-12-07T00:25:00;1018.2;;;6.4
79148;BMP280;68562;51.600;6.524;2023-12-07T00:30:00;1018.2;;;6.4
79148;BMP280;68562;51.600;6.524;2023-12-07T00:35:00;1018.2;;;6.4
79148;BMP280;68562;51.600;6.524;2023-12-07T00:40:00;1018.2;;;6.4
79148;BMP280;68562;51.600;6.524;2023-12-07T00:45:00;1018.3;;;6.4
79148;BMP280;68562;51.600;6.524;2023-12-07T00:50:00;1018.3;;;6.4
79148;BMP280;68562;51.600;6.524;2023-12-07T00:55:00;1018.4;;;6.5
79148;BMP280;68562;51.600;6.524;2023-12-07T01:00:00;1018.3;;;6.5
79148;BMP280;68562;51.600;6.524;2023-12-07T01:05:00;1018.4;;;6.6
79148;BMP280;68562;51.600;6.524;2023-12-07T01:10:00;1018.4;;;6.6
79148;BMP280;68562;51.600;6.524;2023-12-07T01:15:00;1018.4;;;6.6
79148;BMP280;68562;51.600;6.524;2023-12-07T01:20:00;1018.5;;;6.5
79148;BMP280;68562;51.600;6.524;2023-12-07T01:25:00;1018.4;;;6.5
79148;BMP280;68562;51.600;6.524;2023-12-07T01:30:00;1018.4;;;6.4
79148;BMP280;68562;51.600;6.524;2023-12-07T01:35:00;1018.5;;;6.4
79148;BMP280;68562;51.600;6.524;2023-12-07T01:40:00;1018.5;;;6.4
79148;BMP280;68562;51.600;6.524;2023-12-07T01:45:00;1018.5;;;6.4
79148;BMP280;68562;51.600;6.524;2023-12-07T01:50:01;1018.6;;;6.3
79148;BMP280;68562;51.600;6.524;2023-12-07T01:55:00;1018.6;;;6.3
79148;BMP280;68562;51.600;6.524;2023-12-07T02:00:00;1018.6;;;6.3
79148;BMP280;68562;51.600;6.524;2023-12-07T02:05:01;1018.6;;;6.3
79148;BMP280;68562;51.600;6.524;2023-12-07T02:10:00;1018.6;;;6.2
79148;BMP280;68562;51.600;6.524;2023-12-07T02:15:01;1018.7;;;6.1
79148;BMP280;68562;51.600;6.524;2023-12-07T02:20:05;1018.7;;;6.1
79148;BMP280;68562;51.600;6.524;2023-12-07T02:25:05;1018.8;;;6.1
79148;BMP280;68562;51.600;6.524;2023-12-07T02:30:00;1018.8;;;6.1
79148;BMP280;68562;51.600;6.524;2023-12-07T02:35:00;1018.8;;;6.1
79148;BMP280;68562;51.600;6.524;2023-12-07T02:40:00;1018.9;;;6.2
79148;BMP280;68562;51.600;6.524;2023-12-07T02:45:02;1018.9;;;6.2
79148;BMP280;68562;51.600;6.524;2023-12-07T02:50:00;1018.8;;;6.3
79148;BMP280;68562;51.600;6.524;2023-12-07T02:55:00;1018.7;;;6.3
79148;BMP280;68562;51.600;6.524;2023-12-07T03:00:00;1018.7;;;6.3
79148;BMP280;68562;51.600;6.524;2023-12-07T03:05:00;1018.7;;;6.3
79148;BMP280;68562;51.600;6.524;2023-12-07T03:10:00;1018.7;;;6.4
79148;BMP280;68562;51.600;6.524;2023-12-07T03:15:00;1018.7;;;6.3
79148;BMP280;68562;51.600;6.524;2023-12-07T03:20:00;1018.7;;;6.3
79148;BMP280;68562;51.600;6.524;2023-12-07T03:25:00;1018.7;;;6.2
79148;BMP280;68562;51.600;6.524;2023-12-07T03:30:00;1018.8;;;6.2
79148;BMP280;68562;51.600;6.524;2023-12-07T03:35:00;1018.8;;;6.2
79148;BMP280;68562;51.600;6.524;2023-12-07T03:40:00;1018.8;;;6.3
79148;BMP280;68562;51.600;6.524;2023-12-07T03:45:00;1018.8;;;6.3
79148;BMP280;68562;51.600;6.524;2023-12-07T03:50:00;1018.8;;;6.4
79148;BMP280;68562;51.600;6.524;2023-12-07T03:55:00;1018.8;;;6.3
79148;BMP280;68562;51.600;6.524;2023-12-07T04:00:00;1018.7;;;6.3
79148;BMP280;68562;51.600;6.524;2023-12-07T04:05:00;1018.7;;;6.2
79148;BMP280;68562;51.600;6.524;2023-12-07T04:10:00;1018.8;;;6.2
79148;BMP280;68562;51.600;6.524;2023-12-07T04:15:00;1018.8;;;6.2
79148;BMP280;68562;51.600;6.524;2023-12-07T04:20:00;1018.8;;;6.2
79148;BMP280;68562;51.600;6.524;2023-12-07T04:25:00;1019.0;;;6.2
79148;BMP280;68562;51.600;6.524;2023-12-07T04:30:00;1018.9;;;6.2
79148;BMP280;68562;51.600;6.524;2023-12-07T04:35:00;1019.0;;;6.2
79148;BMP280;68562;51.600;6.524;2023-12-07T04:40:00;1019.1;;;6.3
79148;BMP280;68562;51.600;6.524;2023-12-07T04:45:00;1019.0;;;6.2
79148;BMP280;68562;51.600;6.524;2023-12-07T04:50:00;1019.0;;;6.2
79148;BMP280;68562;51.600;6.524;2023-12-07T04:55:00;1019.1;;;6.2
79148;BMP280;68562;51.600;6.524;2023-12-07T05:00:01;1019.1;;;6.2
79148;BMP280;68562;51.600;6.524;2023-12-07T05:05:00;1019.2;;;6.2
79148;BMP280;68562;51.600;6.524;2023-12-07T05:10:00;1019.2;;;6.2
79148;BMP280;68562;51.600;6.524;2023-12-07T05:15:00;1019.2;;;6.2
79148;BMP280;68562;51.600;6.524;2023-12-07T05:20:00;1019.2;;;6.3
79148;BMP280;68562;51.600;6.524;2023-12-07T05:25:00;1019.2;;;6.3
79148;BMP280;68562;51.600;6.524;2023-12-07T05:30:00;1019.2;;;6.3
79148;BMP280;68562;51.600;6.524;2023-12-07T05:35:00;1019.2;;;6.3
79148;BMP280;68562;51.600;6.524;2023-12-07T05:40:00;1019.2;;;6.3
79148;BMP280;68562;51.600;6.524;2023-12-07T05:45:01;1019.2;;;6.4
79148;BMP280;68562;51.600;6.524;2023-12-07T05:50:00;1019.1;;;6.4
79148;BMP280;68562;51.600;6.524;2023-12-07T05:55:00;1019.0;;;6.4
79148;BMP280;68562;51.600;6.524;2023-12-07T06:00:00;1018.9;;;6.3
79148;BMP280;68562;51.600;6.524;2023-12-07T06:05:00;1019.0;;;6.3
79148;BMP280;68562;51.600;6.524;2023-12-07T06:10:00;1019.0;;;6.3
79148;BMP280;68562;51.600;6.524;2023-12-07T06:15:00;1018.9;;;6.4
79148;BMP280;68562;51.600;6.524;2023-12-07T06:20:00;1018.9;;;6.3
79148;BMP280;68562;51.600;6.524;2023-12-07T06:25:00;1018.9;;;6.4
79148;BMP280;68562;51.600;6.524;2023-12-07T06:30:01;1018.9;;;6.2
79148;BMP280;68562;51.600;6.524;2023-12-07T06:35:00;1019.0;;;6.3
79148;BMP280;68562;51.600;6.524;2023-12-07T06:40:00;1019.0;;;6.2
79148;BMP280;68562;51.600;6.524;2023-12-07T06:45:01;1019.0;;;6.2
79148;BMP280;68562;51.600;6.524;2023-12-07T06:50:00;1019.1;;;6.1
79148;BMP280;68562;51.600;6.524;2023-12-07T06:55:00;1019.1;;;6.2
79148;BMP280;68562;51.600;6.524;2023-12-07T07:00:00;1019.0;;;6.0
79148;BMP280;68562;51.600;6.524;2023-12-07T07:05:00;1019.1;;;6.1
79148;BMP280;68562;51.600;6.524;2023-12-07T07:10:00;1019.0;;;6.0
79148;BMP280;68562;51.600;6.524;2023-12-07T07:15:00;1018.9;;;6.1
79148;BMP280;68562;51.600;6.524;2023-12-07T07:20:00;1019.0;;;6.0
79148;BMP280;68562;51.600;6.524;2023-12-07T07:25:00;1019.0;;;6.1
79148;BMP280;68562;51.600;6.524;2023-12-07T07:30:00;1019.0;;;6.1
79148;BMP280;68562;51.600;6.524;2023-12-07T07:35:00;1018.9;;;6.0
79148;BMP280;68562;51.600;6.524;2023-12-07T07:40:00;1019.0;;;5.8
79148;BMP280;68562;51.600;6.524;2023-12-07T07:45:01;1019.0;;;5.9
79148;BMP280;68562;51.600;6.524;2023-12-07T07:50:00;1019.0;;;5.9
79148;BMP280;68562;51.600;6.524;2023-12-07T07:55:00;1019.0;;;6.0
79148;BMP280;68562;51.600;6.524;2023-12-07T08:00:00;1019.1;;;6.0
79148;BMP280;68562;51.600;6.524;2023-12-07T08:05:00;1019.1;;;6.1
79148;BMP280;68562;51.600;6.524;2023-12-07T08:10:00;1019.2;;;6.2
79148;BMP280;68562;51.600;6.524;2023-12-07T08:15:00;1019.3;;;6.2
79148;BMP280;68562;51.600;6.524;2023-12-07T08:20:00;1019.2;;;6.3
79148;BMP280;68562;51.600;6.524;2023-12-07T08:25:00;1019.3;;;6.4
79148;BMP280;68562;51.600;6.524;2023-12-07T08:30:01;1019.3;;;6.4
79148;BMP280;68562;51.600;6.524;2023-12-07T08:35:00;1019.2;;;6.5
79148;BMP280;68562;51.600;6.524;2023-12-07T08:40:00;1019.2;;;6.5
79148;BMP280;68562;51.600;6.524;2023-12-07T08:45:00;1019.3;;;6.5
79148;BMP280;68562;51.600;6.524;2023-12-07T08:50:00;1019.2;;;6.6
79148;BMP280;68562;51.600;6.524;2023-12-07T08:55:00;1019.1;;;6.7
79148;BMP280;68562;51.600;6.524;2023-12-07T09:00:00;1019.0;;;6.8
79148;BMP280;68562;51.600;6.524;2023-12-07T09:05:00;1019.0;;;6.8
79148;BMP280;68562;51.600;6.524;2023-12-07T09:10:00;1019.0;;;6.9
79148;BMP280;68562;51.600;6.524;2023-12-07T09:15:00;1019.1;;;6.9
79148;BMP280;68562;51.600;6.524;2023-12-07T09:20:00;1019.0;;;7.0
79148;BMP280;68562;51.600;6.524;2023-12-07T09:25:00;1019.1;;;7.0
79148;BMP280;68562;51.600;6.524;2023-12-07T09:30:00;1019.0;;;7.1
79148;BMP280;68562;51.600;6.524;2023-12-07T09:35:00;1019.0;;;7.1
79148;BMP280;68562;51.600;6.524;2023-12-07T09:40:01;1019.0;;;7.1
79148;BMP280;68562;51.600;6.524;2023-12-07T09:45:00;1019.1;;;7.0
79148;BMP280;68562;51.600;6.524;2023-12-07T09:50:01;1019.0;;;7.1
79148;BMP280;68562;51.600;6.524;2023-12-07T09:55:02;1019.0;;;7.1
79148;BMP280;68562;51.600;6.524;2023-12-07T10:00:00;1018.9;;;7.2
79148;BMP280;68562;51.600;6.524;2023-12-07T10:05:04;1018.8;;;7.2
79148;BMP280;68562;51.600;6.524;2023-12-07T10:10:00;1018.8;;;7.3
79148;BMP280;68562;51.600;6.524;2023-12-07T10:15:00;1018.7;;;7.3
79148;BMP280;68562;51.600;6.524;2023-12-07T10:20:08;1018.7;;;7.5
79148;BMP280;68562;51.600;6.524;2023-12-07T10:25:00;1018.5;;;7.6
79148;BMP280;68562;51.600;6.524;2023-12-07T10:30:00;1018.5;;;7.8
79148;BMP280;68562;51.600;6.524;2023-12-07T10:35:00;1018.4;;;7.9
79148;BMP280;68562;51.600;6.524;2023-12-07T10:40:01;1018.4;;;8.2
79148;BMP280;68562;51.600;6.524;2023-12-07T10:45:04;1018.1;;;8.3
79148;BMP280;68562;51.600;6.524;2023-12-07T10:50:02;1018.0;;;8.5
79148;BMP280;68562;51.600;6.524;2023-12-07T10:55:02;1017.9;;;8.6
79148;BMP280;68562;51.600;6.524;2023-12-07T11:00:01;1017.9;;;8.9
79148;BMP280;68562;51.600;6.524;2023-12-07T11:05:01;1017.8;;;9.3
79148;BMP280;68562;51.600;6.524;2023-12-07T11:10:05;1017.7;;;9.7
79148;BMP280;68562;51.600;6.524;2023-12-07T11:15:01;1017.5;;;10.0
79148;BMP280;68562;51.600;6.524;2023-12-07T11:20:00;1017.6;;;10.6
79148;BMP280;68562;51.600;6.524;2023-12-07T11:25:01;1017.5;;;11.3
79148;BMP280;68562;51.600;6.524;2023-12-07T11:30:02;1017.4;;;12.1
79148;BMP280;68562;51.600;6.524;2023-12-07T11:35:03;1017.3;;;12.8
79148;BMP280;68562;51.600;6.524;2023-12-07T11:40:00;1017.2;;;13.2
79148;BMP280;68562;51.600;6.524;2023-12-07T11:45:01;1017.0;;;13.6
79148;BMP280;68562;51.600;6.524;2023-12-07T11:50:03;1017.0;;;13.9
79148;BMP280;68562;51.600;6.524;2023-12-07T11:55:00;1016.9;;;14.2
79148;BMP280;68562;51.600;6.524;2023-12-07T12:00:01;1016.8;;;14.5
79148;BMP280;68562;51.600;6.524;2023-12-07T12:05:00;1016.8;;;14.8
79148;BMP280;68562;51.600;6.524;2023-12-07T12:10:02;1016.8;;;15.1
79148;BMP280;68562;51.600;6.524;2023-12-07T12:15:00;1016.8;;;15.1
79148;BMP280;68562;51.600;6.524;2023-12-07T12:20:00;1016.6;;;15.0
79148;BMP280;68562;51.600;6.524;2023-12-07T12:25:00;1016.6;;;14.9
79148;BMP280;68562;51.600;6.524;2023-12-07T12:30:02;1016.6;;;14.6
79148;BMP280;68562;51.600;6.524;2023-12-07T12:35:00;1016.5;;;14.4
79148;BMP280;68562;51.600;6.524;2023-12-07T12:40:05;1016.4;;;14.2
79148;BMP280;68562;51.600;6.524;2023-12-07T12:45:01;1016.3;;;14.2
79148;BMP280;68562;51.600;6.524;2023-12-07T12:50:00;1016.2;;;14.2
79148;BMP280;68562;51.600;6.524;2023-12-07T12:55:00;1016.1;;;14.4
79148;BMP280;68562;51.600;6.524;2023-12-07T13:00:00;1016.2;;;14.4
79148;BMP280;68562;51.600;6.524;2023-12-07T13:05:00;1016.3;;;14.4
79148;BMP280;68562;51.600;6.524;2023-12-07T13:10:00;1016.3;;;14.2
79148;BMP280;68562;51.600;6.524;2023-12-07T13:15:00;1016.2;;;14.2
79148;BMP280;68562;51.600;6.524;2023-12-07T13:20:00;1016.1;;;14.2
79148;BMP280;68562;51.600;6.524;2023-12-07T13:25:00;1016.0;;;14.3
79148;BMP280;68562;51.600;6.524;2023-12-07T13:30:01;1016.0;;;14.3
79148;BMP280;68562;51.600;6.524;2023-12-07T13:35:01;1015.9;;;14.4
79148;BMP280;68562;51.600;6.524;2023-12-07T13:40:00;1015.7;;;14.5
79148;BMP280;68562;51.600;6.524;2023-12-07T13:45:00;1015.7;;;14.7
79148;BMP280;68562;51.600;6.524;2023-12-07T13:50:00;1015.5;;;14.4
79148;BMP280;68562;51.600;6.524;2023-12-07T13:55:00;1015.5;;;14.2
79148;BMP280;68562;51.600;6.524;2023-12-07T14:00:00;1015.4;;;13.9
79148;BMP280;68562;51.600;6.524;2023-12-07T14:05:00;1015.1;;;13.6
79148;BMP280;68562;51.600;6.524;2023-12-07T14:10:00;1015.2;;;13.3
79148;BMP280;68562;51.600;6.524;2023-12-07T14:15:00;1015.1;;;12.9
79148;BMP280;68562;51.600;6.524;2023-12-07T14:20:00;1015.2;;;12.5
79148;BMP280;68562;51.600;6.524;2023-12-07T14:25:01;1015.2;;;12.2
79148;BMP280;68562;51.600;6.524;2023-12-07T14:30:00;1014.9;;;11.8
79148;BMP280;68562;51.600;6.524;2023-12-07T14:35:00;1014.9;;;11.3
79148;BMP280;68562;51.600;6.524;2023-12-07T14:40:00;1014.6;;;10.9
79148;BMP280;68562;51.600;6.524;2023-12-07T14:45:00;1014.5;;;10.6
79148;BMP280;68562;51.600;6.524;2023-12-07T14:50:00;1014.5;;;10.4
79148;BMP280;68562;51.600;6.524;2023-12-07T14:55:00;1014.3;;;10.1
79148;BMP280;68562;51.600;6.524;2023-12-07T15:00:00;1014.3;;;9.9
79148;BMP280;68562;51.600;6.524;2023-12-07T15:05:00;1014.4;;;9.7
79148;BMP280;68562;51.600;6.524;2023-12-07T15:10:00;1014.4;;;9.6
79148;BMP280;68562;51.600;6.524;2023-12-07T15:15:00;1014.4;;;9.5
79148;BMP280;68562;51.600;6.524;2023-12-07T15:20:00;1014.4;;;9.5
79148;BMP280;68562;51.600;6.524;2023-12-07T15:25:00;1014.3;;;9.4
79148;BMP280;68562;51.600;6.524;2023-12-07T15:30:00;1014.2;;;9.3
79148;BMP280;68562;51.600;6.524;2023-12-07T15:35:00;1014.1;;;9.2
79148;BMP280;68562;51.600;6.524;2023-12-07T15:40:00;1014.1;;;9.2
79148;BMP280;68562;51.600;6.524;2023-12-07T15:45:00;1014.0;;;9.1
79148;BMP280;68562;51.600;6.524;2023-12-07T15:50:00;1014.0;;;9.1
79148;BMP280;68562;51.600;6.524;2023-12-07T15:55:00;1013.9;;;9.0
79148;BMP280;68562;51.600;6.524;2023-12-07T16:00:01;1013.8;;;8.9
79148;BMP280;68562;51.600;6.524;2023-12-07T16:05:00;1013.8;;;8.9
79148;BMP280;68562;51.600;6.524;2023-12-07T16:10:00;1013.8;;;8.8
79148;BMP280;68562;51.600;6.524;2023-12-07T16:15:00;1013.7;;;8.7
79148;BMP280;68562;51.600;6.524;2023-12-07T16:20:01;1013.5;;;8.7
79148;BMP280;68562;51.600;6.524;2023-12-07T16:25:00;1013.4;;;8.6
79148;BMP280;68562;51.600;6.524;2023-12-07T16:30:00;1013.2;;;8.6
79148;BMP280;68562;51.600;6.524;2023-12-07T16:35:00;1013.1;;;8.5
79148;BMP280;68562;51.600;6.524;2023-12-07T16:40:00;1013.2;;;8.5
79148;BMP280;68562;51.600;6.524;2023-12-07T16:45:00;1013.1;;;8.5
79148;BMP280;68562;51.600;6.524;2023-12-07T16:50:00;1013.2;;;8.5
79148;BMP280;68562;51.600;6.524;2023-12-07T16:55:00;1013.1;;;8.4
79148;BMP280;68562;51.600;6.524;2023-12-07T17:00:00;1013.1;;;8.4
79148;BMP280;68562;51.600;6.524;2023-12-07T17:05:00;1013.0;;;8.1
79148;BMP280;68562;51.600;6.524;2023-12-07T17:10:00;1013.0;;;8.2
79148;BMP280;68562;51.600;6.524;2023-12-07T17:15:01;1013.0;;;8.1
79148;BMP280;68562;51.600;6.524;2023-12-07T17:20:00;1012.9;;;8.1
79148;BMP280;68562;51.600;6.524;2023-12-07T17:25:00;1012.8;;;8.1
79148;BMP280;68562;51.600;6.524;2023-12-07T17:30:00;1012.7;;;8.0
79148;BMP280;68562;51.600;6.524;2023-12-07T17:35:00;1012.7;;;8.0
79148;BMP280;68562;51.600;6.524;2023-12-07T17:40:00;1012.7;;;8.1
79148;BMP280;68562;51.600;6.524;2023-12-07T17:45:00;1012.7;;;8.0
79148;BMP280;68562;51.600;6.524;2023-12-07T17:50:00;1012.8;;;8.1
79148;BMP280;68562;51.600;6.524;2023-12-07T17:55:00;1012.7;;;8.1
79148;BMP280;68562;51.600;6.524;2023-12-07T18:00:00;1012.7;;;8.0
79148;BMP280;68562;51.600;6.524;2023-12-07T18:05:00;1012.7;;;8.0
79148;BMP280;68562;51.600;6.524;2023-12-07T18:10:00;1012.5;;;8.0
79148;BMP280;68562;51.600;6.524;2023-12-07T18:15:00;1012.4;;;8.1
79148;BMP280;68562;51.600;6.524;2023-12-07T18:20:00;1012.4;;;8.0
79148;BMP280;68562;51.600;6.524;2023-12-07T18:25:00;1012.5;;;8.0
79148;BMP280;68562;51.600;6.524;2023-12-07T18:30:00;1012.4;;;8.1
79148;BMP280;68562;51.600;6.524;2023-12-07T18:35:00;1012.3;;;8.2
79148;BMP280;68562;51.600;6.524;2023-12-07T18:40:00;1012.4;;;8.2
79148;BMP280;68562;51.600;6.524;2023-12-07T18:45:00;1012.4;;;8.2
79148;BMP280;68562;51.600;6.524;2023-12-07T18:50:00;1012.4;;;8.1
79148;BMP280;68562;51.600;6.524;2023-12-07T18:55:00;1012.3;;;8.1
79148;BMP280;68562;51.600;6.524;2023-12-07T19:00:00;1012.1;;;8.1
79148;BMP280;68562;51.600;6.524;2023-12-07T19:05:00;1012.2;;;8.1
79148;BMP280;68562;51.600;6.524;2023-12-07T19:10:00;1012.2;;;8.0
79148;BMP280;68562;51.600;6.524;2023-12-07T19:15:00;1012.0;;;8.0
79148;BMP280;68562;51.600;6.524;2023-12-07T19:20:00;1011.9;;;7.9
79148;BMP280;68562;51.600;6.524;2023-12-07T19:25:00;1011.8;;;7.9
79148;BMP280;68562;51.600;6.524;2023-12-07T19:30:00;1011.8;;;8.0
79148;BMP280;68562;51.600;6.524;2023-12-07T19:35:00;1011.8;;;8.1
79148;BMP280;68562;51.600;6.524;2023-12-07T19:40:00;1011.8;;;7.9
79148;BMP280;68562;51.600;6.524;2023-12-07T19:45:00;1011.7;;;8.0
79148;BMP280;68562;51.600;6.524;2023-12-07T19:50:00;1011.7;;;8.0
79148;BMP280;68562;51.600;6.524;2023-12-07T19:55:00;1011.6;;;8.0
79148;BMP280;68562;51.600;6.524;2023-12-07T20:00:00;1011.4;;;8.0
79148;BMP280;68562;51.600;6.524;2023-12-07T20:05:00;1010.9;;;8.0
79148;BMP280;68562;51.600;6.524;2023-12-07T20:10:00;1010.9;;;7.8
79148;BMP280;68562;51.600;6.524;2023-12-07T20:15:01;1010.8;;;7.8
79148;BMP280;68562;51.600;6.524;2023-12-07T20:20:00;1010.9;;;7.8
79148;BMP280;68562;51.600;6.524;2023-12-07T20:25:00;1010.7;;;7.9
79148;BMP280;68562;51.600;6.524;2023-12-07T20:30:00;1010.6;;;7.4
79148;BMP280;68562;51.600;6.524;2023-12-07T20:35:00;1010.6;;;7.7
79148;BMP280;68562;51.600;6.524;2023-12-07T20:40:00;1010.6;;;7.4
79148;BMP280;68562;51.600;6.524;2023-12-07T20:45:00;1010.5;;;7.5
79148;BMP280;68562;51.600;6.524;2023-12-07T20:50:00;1010.3;;;7.6
79148;BMP280;68562;51.600;6.524;2023-12-07T20:55:00;1010.1;;;7.6
79148;BMP280;68562;51.600;6.524;2023-12-07T21:00:00;1010.1;;;7.6
79148;BMP280;68562;51.600;6.524;2023-12-07T21:05:00;1009.9;;;7.6
79148;BMP280;68562;51.600;6.524;2023-12-07T21:10:00;1009.8;;;7.6
79148;BMP280;68562;51.600;6.524;2023-12-07T21:15:00;1009.7;;;7.5
79148;BMP280;68562;51.600;6.524;2023-12-07T21:20:00;1009.6;;;7.6
79148;BMP280;68562;51.600;6.524;2023-12-07T21:25:00;1009.4;;;7.5
79148;BMP280;68562;51.600;6.524;2023-12-07T21:30:00;1009.4;;;7.5
79148;BMP280;68562;51.600;6.524;2023-12-07T21:35:00;1009.3;;;7.6
79148;BMP280;68562;51.600;6.524;2023-12-07T21:40:00;1009.3;;;7.6
79148;BMP280;68562;51.600;6.524;2023-12-07T21:45:00;1009.2;;;7.6
79148;BMP280;68562;51.600;6.524;2023-12-07T21:50:00;1009.0;;;7.7
79148;BMP280;68562;51.600;6.524;2023-12-07T21:55:00;1008.9;;;7.4
79148;BMP280;68562;51.600;6.524;2023-12-07T22:00:00;1008.6;;;7.4
79148;BMP280;68562;51.600;6.524;2023-12-07T22:05:00;1008.5;;;7.4
79148;BMP280;68562;51.600;6.524;2023-12-07T22:10:00;1008.4;;;7.3
79148;BMP280;68562;51.600;6.524;2023-12-07T22:15:00;1008.3;;;7.5
79148;BMP280;68562;51.600;6.524;2023-12-07T22:20:00;1008.2;;;7.7
79148;BMP280;68562;51.600;6.524;2023-12-07T22:25:00;1008.0;;;7.8
79148;BMP280;68562;51.600;6.524;2023-12-07T22:30:00;1007.9;;;7.7
79148;BMP280;68562;51.600;6.524;2023-12-07T22:35:00;1007.6;;;7.5
79148;BMP280;68562;51.600;6.524;2023-12-07T22:40:00;1007.8;;;7.6
79148;BMP280;68562;51.600;6.524;2023-12-07T22:45:00;1007.5;;;7.7
79148;BMP280;68562;51.600;6.524;2023-12-07T22:50:00;1007.7;;;7.9
79148;BMP280;68562;51.600;6.524;2023-12-07T22:55:00;1007.7;;;7.9
79148;BMP280;68562;51.600;6.524;2023-12-07T23:00:00;1007.5;;;8.1
79148;BMP280;68562;51.600;6.524;2023-12-07T23:05:00;1007.7;;;8.0
79148;BMP280;68562;51.600;6.524;2023-12-07T23:10:00;1007.7;;;8.1
79148;BMP280;68562;51.600;6.524;2023-12-07T23:15:00;1007.9;;;8.2
79148;BMP280;68562;51.600;6.524;2023-12-07T23:20:00;1007.8;;;8.4
79148;BMP280;68562;51.600;6.524;2023-12-07T23:25:00;1007.5;;;8.4
79148;BMP280;68562;51.600;6.524;2023-12-07T23:30:00;1007.4;;;8.4
79148;BMP280;68562;51.600;6.524;2023-12-07T23:35:00;1007.2;;;8.2
79148;BMP280;68562;51.600;6.524;2023-12-07T23:40:00;1007.7;;;8.5
79148;BMP280;68562;51.600;6.524;2023-12-07T23:45:00;1007.5;;;8.6
79148;BMP280;68562;51.600;6.524;2023-12-07T23:50:00;1007.3;;;8.8
79148;BMP280;68562;51.600;6.524;2023-12-07T23:55:00;1007.5;;;8.7
